sensor_id;sensor_type;location;lat;lon;timestamp;temperature;humidity
75357;HTU21D;63946;51.986;5.930;2023-12-29T08:06:02;10.51;75.05
75357;HTU21D;63946;51.986;5.930;2023-12-29T08:08:30;10.51;75.10
75357;HTU21D;63946;51.986;5.930;2023-12-29T08:11:00;10.52;75.20
75357;HTU21D;63946;51.986;5.930;2023-12-29T08:13:28;10.54;75.27
75357;HTU21D;63946;51.986;5.930;2023-12-29T08:15:57;10.53;75.42
75357;HTU21D;63946;51.986;5.930;2023-12-29T08:18:26;10.52;75.38
75357;HTU21D;63946;51.986;5.930;2023-12-29T08:20:54;10.51;75.65
75357;HTU21D;63946;51.986;5.930;2023-12-29T08:23:25;10.52;75.56
75357;HTU21D;63946;51.986;5.930;2023-12-29T08:25:56;10.52;75.52
75357;HTU21D;63946;51.986;5.930;2023-12-29T08:28:26;10.55;75.62
75357;HTU21D;63946;51.986;5.930;2023-12-29T08:30:54;10.56;75.61
75357;HTU21D;63946;51.986;5.930;2023-12-29T08:33:23;10.59;75.60
75357;HTU21D;63946;51.986;5.930;2023-12-29T08:35:52;10.58;75.57
75357;HTU21D;63946;51.986;5.930;2023-12-29T08:38:26;10.57;75.67
75357;HTU21D;63946;51.986;5.930;2023-12-29T08:40:55;10.60;75.59
75357;HTU21D;63946;51.986;5.930;2023-12-29T08:43:24;10.63;75.54
75357;HTU21D;63946;51.986;5.930;2023-12-29T08:45:53;10.64;75.55
75357;HTU21D;63946;51.986;5.930;2023-12-29T08:48:22;10.65;75.51
75357;HTU21D;63946;51.986;5.930;2023-12-29T08:50:51;10.67;75.44
75357;HTU21D;63946;51.986;5.930;2023-12-29T08:53:20;10.70;75.25
75357;HTU21D;63946;51.986;5.930;2023-12-29T08:55:48;10.70;75.41
75357;HTU21D;63946;51.986;5.930;2023-12-29T08:58:17;10.72;75.29
75357;HTU21D;63946;51.986;5.930;2023-12-29T09:00:46;10.74;75.21
75357;HTU21D;63946;51.986;5.930;2023-12-29T09:03:14;10.75;75.15
75357;HTU21D;63946;51.986;5.930;2023-12-29T09:05:43;10.78;75.15
75357;HTU21D;63946;51.986;5.930;2023-12-29T09:08:12;10.81;74.97
75357;HTU21D;63946;51.986;5.930;2023-12-29T09:10:41;10.81;74.96
75357;HTU21D;63946;51.986;5.930;2023-12-29T09:13:10;10.84;74.93
75357;HTU21D;63946;51.986;5.930;2023-12-29T09:15:39;10.85;74.79
75357;HTU21D;63946;51.986;5.930;2023-12-29T09:18:08;10.86;74.74
75357;HTU21D;63946;51.986;5.930;2023-12-29T09:20:36;10.87;74.57
75357;HTU21D;63946;51.986;5.930;2023-12-29T09:23:05;10.87;74.68
75357;HTU21D;63946;51.986;5.930;2023-12-29T09:25:34;10.90;74.66
75357;HTU21D;63946;51.986;5.930;2023-12-29T09:28:03;10.92;74.47
75357;HTU21D;63946;51.986;5.930;2023-12-29T09:30:32;10.97;74.42
75357;HTU21D;63946;51.986;5.930;2023-12-29T09:33:01;10.99;74.30
75357;HTU21D;63946;51.986;5.930;2023-12-29T09:35:31;11.01;74.27
75357;HTU21D;63946;51.986;5.930;2023-12-29T09:38:00;11.01;74.18
75357;HTU21D;63946;51.986;5.930;2023-12-29T09:40:30;11.02;74.08
75357;HTU21D;63946;51.986;5.930;2023-12-29T09:42:59;11.03;73.92
75357;HTU21D;63946;51.986;5.930;2023-12-29T09:45:33;11.07;74.11
75357;HTU21D;63946;51.986;5.930;2023-12-29T09:48:08;11.08;74.04
75357;HTU21D;63946;51.986;5.930;2023-12-29T09:50:40;11.09;73.96
75357;HTU21D;63946;51.986;5.930;2023-12-29T09:53:10;11.10;73.90
75357;HTU21D;63946;51.986;5.930;2023-12-29T09:55:40;11.13;73.74
75357;HTU21D;63946;51.986;5.930;2023-12-29T09:58:12;11.15;73.69
75357;HTU21D;63946;51.986;5.930;2023-12-29T10:00:47;11.16;73.44
75357;HTU21D;63946;51.986;5.930;2023-12-29T10:03:17;11.17;73.47
75357;HTU21D;63946;51.986;5.930;2023-12-29T10:05:50;11.17;73.37
75357;HTU21D;63946;51.986;5.930;2023-12-29T10:08:22;11.20;73.37
75357;HTU21D;63946;51.986;5.930;2023-12-29T10:10:51;11.25;73.27
75357;HTU21D;63946;51.986;5.930;2023-12-29T10:13:21;11.26;73.20
75357;HTU21D;63946;51.986;5.930;2023-12-29T10:21:52;11.40;72.96
75357;HTU21D;63946;51.986;5.930;2023-12-29T10:24:24;11.43;72.75
75357;HTU21D;63946;51.986;5.930;2023-12-29T10:26:53;11.44;72.80
75357;HTU21D;63946;51.986;5.930;2023-12-29T10:29:23;11.43;72.83
75357;HTU21D;63946;51.986;5.930;2023-12-29T10:31:53;11.41;72.92
75357;HTU21D;63946;51.986;5.930;2023-12-29T10:34:24;11.40;72.84
75357;HTU21D;63946;51.986;5.930;2023-12-29T10:36:55;11.41;73.09
75357;HTU21D;63946;51.986;5.930;2023-12-29T10:39:25;11.42;73.03
75357;HTU21D;63946;51.986;5.930;2023-12-29T10:42:04;11.46;72.99
75357;HTU21D;63946;51.986;5.930;2023-12-29T10:44:34;11.46;73.04
75357;HTU21D;63946;51.986;5.930;2023-12-29T10:47:10;11.52;73.05
75357;HTU21D;63946;51.986;5.930;2023-12-29T10:49:40;11.55;72.87
75357;HTU21D;63946;51.986;5.930;2023-12-29T10:52:15;11.60;72.77
75357;HTU21D;63946;51.986;5.930;2023-12-29T10:54:44;11.63;72.65
75357;HTU21D;63946;51.986;5.930;2023-12-29T10:57:13;11.68;72.48
75357;HTU21D;63946;51.986;5.930;2023-12-29T10:59:42;11.75;72.46
75357;HTU21D;63946;51.986;5.930;2023-12-29T11:02:12;11.84;72.12
75357;HTU21D;63946;51.986;5.930;2023-12-29T11:04:43;11.89;72.03
75357;HTU21D;63946;51.986;5.930;2023-12-29T11:07:13;11.89;71.97
75357;HTU21D;63946;51.986;5.930;2023-12-29T11:09:42;11.86;72.00
75357;HTU21D;63946;51.986;5.930;2023-12-29T11:12:11;11.82;72.07
75357;HTU21D;63946;51.986;5.930;2023-12-29T11:14:41;11.77;72.11
75357;HTU21D;63946;51.986;5.930;2023-12-29T11:17:14;11.75;72.13
75357;HTU21D;63946;51.986;5.930;2023-12-29T11:19:46;11.74;72.14
75357;HTU21D;63946;51.986;5.930;2023-12-29T11:22:16;11.76;71.89
75357;HTU21D;63946;51.986;5.930;2023-12-29T11:24:49;11.81;71.75
75357;HTU21D;63946;51.986;5.930;2023-12-29T11:27:18;11.89;71.42
75357;HTU21D;63946;51.986;5.930;2023-12-29T11:29:47;11.94;71.09
75357;HTU21D;63946;51.986;5.930;2023-12-29T11:32:22;11.98;70.75
75357;HTU21D;63946;51.986;5.930;2023-12-29T11:34:57;12.01;70.97
75357;HTU21D;63946;51.986;5.930;2023-12-29T11:40:19;12.08;70.39
75357;HTU21D;63946;51.986;5.930;2023-12-29T11:42:51;12.08;70.21
75357;HTU21D;63946;51.986;5.930;2023-12-29T11:45:25;12.06;70.06
75357;HTU21D;63946;51.986;5.930;2023-12-29T11:47:54;12.08;70.08
75357;HTU21D;63946;51.986;5.930;2023-12-29T11:50:33;12.12;69.88
75357;HTU21D;63946;51.986;5.930;2023-12-29T11:53:02;12.12;69.84
75357;HTU21D;63946;51.986;5.930;2023-12-29T11:55:36;12.11;69.74
75357;HTU21D;63946;51.986;5.930;2023-12-29T11:58:23;12.11;69.69
75357;HTU21D;63946;51.986;5.930;2023-12-29T12:00:55;12.11;69.73
75357;HTU21D;63946;51.986;5.930;2023-12-29T12:03:28;12.10;69.47
75357;HTU21D;63946;51.986;5.930;2023-12-29T12:05:59;12.08;69.67
75357;HTU21D;63946;51.986;5.930;2023-12-29T12:08:30;12.08;69.70
75357;HTU21D;63946;51.986;5.930;2023-12-29T12:13:58;12.06;69.76
75357;HTU21D;63946;51.986;5.930;2023-12-29T12:19:14;12.12;69.78
75357;HTU21D;63946;51.986;5.930;2023-12-29T12:21:46;12.14;69.75
75357;HTU21D;63946;51.986;5.930;2023-12-29T12:24:18;12.16;69.66
75357;HTU21D;63946;51.986;5.930;2023-12-29T12:26:47;12.17;69.69
75357;HTU21D;63946;51.986;5.930;2023-12-29T12:29:17;12.16;69.59
75357;HTU21D;63946;51.986;5.930;2023-12-29T12:31:53;12.17;69.61
75357;HTU21D;63946;51.986;5.930;2023-12-29T12:34:22;12.16;69.59
75357;HTU21D;63946;51.986;5.930;2023-12-29T12:36:52;12.18;69.65
75357;HTU21D;63946;51.986;5.930;2023-12-29T12:39:22;12.17;69.46
75357;HTU21D;63946;51.986;5.930;2023-12-29T12:41:51;12.19;69.57
75357;HTU21D;63946;51.986;5.930;2023-12-29T12:44:20;12.21;69.58
75357;HTU21D;63946;51.986;5.930;2023-12-29T12:46:57;12.25;69.36
75357;HTU21D;63946;51.986;5.930;2023-12-29T12:49:29;12.25;69.52
75357;HTU21D;63946;51.986;5.930;2023-12-29T12:51:58;12.25;69.57
75357;HTU21D;63946;51.986;5.930;2023-12-29T12:54:28;12.23;69.59
75357;HTU21D;63946;51.986;5.930;2023-12-29T12:56:57;12.19;69.70
75357;HTU21D;63946;51.986;5.930;2023-12-29T12:59:27;12.17;69.74
75357;HTU21D;63946;51.986;5.930;2023-12-29T13:01:56;12.13;69.79
75357;HTU21D;63946;51.986;5.930;2023-12-29T13:04:25;12.13;69.91
75357;HTU21D;63946;51.986;5.930;2023-12-29T13:06:54;12.15;69.92
75357;HTU21D;63946;51.986;5.930;2023-12-29T13:09:23;12.15;70.03
75357;HTU21D;63946;51.986;5.930;2023-12-29T13:12:10;12.15;69.82
75357;HTU21D;63946;51.986;5.930;2023-12-29T13:14:39;12.14;69.78
75357;HTU21D;63946;51.986;5.930;2023-12-29T13:17:09;12.12;69.90
75357;HTU21D;63946;51.986;5.930;2023-12-29T13:19:40;12.10;69.84
75357;HTU21D;63946;51.986;5.930;2023-12-29T13:22:11;12.03;70.07
75357;HTU21D;63946;51.986;5.930;2023-12-29T13:24:46;12.00;70.19
75357;HTU21D;63946;51.986;5.930;2023-12-29T13:27:15;12.00;70.19
75357;HTU21D;63946;51.986;5.930;2023-12-29T13:29:44;12.00;70.15
75357;HTU21D;63946;51.986;5.930;2023-12-29T13:32:22;11.99;70.22
75357;HTU21D;63946;51.986;5.930;2023-12-29T13:37:37;11.98;70.32
75357;HTU21D;63946;51.986;5.930;2023-12-29T13:40:47;11.96;70.14
75357;HTU21D;63946;51.986;5.930;2023-12-29T13:43:15;11.94;70.30
75357;HTU21D;63946;51.986;5.930;2023-12-29T13:45:48;11.96;70.28
75357;HTU21D;63946;51.986;5.930;2023-12-29T13:48:17;11.91;70.45
75357;HTU21D;63946;51.986;5.930;2023-12-29T13:50:48;11.87;70.56
75357;HTU21D;63946;51.986;5.930;2023-12-29T13:53:21;11.84;70.57
75357;HTU21D;63946;51.986;5.930;2023-12-29T13:55:50;11.84;70.68
75357;HTU21D;63946;51.986;5.930;2023-12-29T13:58:18;11.84;70.64
75357;HTU21D;63946;51.986;5.930;2023-12-29T14:00:55;11.85;70.59
75357;HTU21D;63946;51.986;5.930;2023-12-29T14:03:32;11.85;70.68
75357;HTU21D;63946;51.986;5.930;2023-12-29T14:06:12;11.85;70.73
75357;HTU21D;63946;51.986;5.930;2023-12-29T14:08:48;11.88;70.77
75357;HTU21D;63946;51.986;5.930;2023-12-29T14:11:16;11.87;70.87
75357;HTU21D;63946;51.986;5.930;2023-12-29T14:13:45;11.89;70.94
75357;HTU21D;63946;51.986;5.930;2023-12-29T14:16:14;11.88;70.97
75357;HTU21D;63946;51.986;5.930;2023-12-29T14:21:31;11.85;71.18
75357;HTU21D;63946;51.986;5.930;2023-12-29T14:24:11;11.88;71.22
75357;HTU21D;63946;51.986;5.930;2023-12-29T14:29:22;11.84;71.33
75357;HTU21D;63946;51.986;5.930;2023-12-29T14:31:52;11.82;71.43
75357;HTU21D;63946;51.986;5.930;2023-12-29T14:34:25;11.81;71.53
75357;HTU21D;63946;51.986;5.930;2023-12-29T14:36:54;11.82;71.52
75357;HTU21D;63946;51.986;5.930;2023-12-29T14:39:23;11.78;71.66
75357;HTU21D;63946;51.986;5.930;2023-12-29T14:41:51;11.74;71.70
75357;HTU21D;63946;51.986;5.930;2023-12-29T14:44:20;11.74;72.06
75357;HTU21D;63946;51.986;5.930;2023-12-29T14:46:49;11.68;72.58
75357;HTU21D;63946;51.986;5.930;2023-12-29T14:49:18;11.59;73.04
75357;HTU21D;63946;51.986;5.930;2023-12-29T14:51:47;11.51;73.61
75357;HTU21D;63946;51.986;5.930;2023-12-29T14:54:15;11.44;74.22
75357;HTU21D;63946;51.986;5.930;2023-12-29T14:56:44;11.36;74.38
75357;HTU21D;63946;51.986;5.930;2023-12-29T14:59:13;11.29;74.51
75357;HTU21D;63946;51.986;5.930;2023-12-29T15:01:41;11.25;74.62
75357;HTU21D;63946;51.986;5.930;2023-12-29T15:04:10;11.25;74.68
75357;HTU21D;63946;51.986;5.930;2023-12-29T15:06:40;11.24;74.78
75357;HTU21D;63946;51.986;5.930;2023-12-29T15:09:10;11.20;74.98
75357;HTU21D;63946;51.986;5.930;2023-12-29T15:11:39;11.15;75.21
75357;HTU21D;63946;51.986;5.930;2023-12-29T15:14:08;11.12;75.39
75357;HTU21D;63946;51.986;5.930;2023-12-29T15:16:36;11.11;75.47
75357;HTU21D;63946;51.986;5.930;2023-12-29T15:19:05;11.11;75.56
75357;HTU21D;63946;51.986;5.930;2023-12-29T15:21:34;11.11;75.47
75357;HTU21D;63946;51.986;5.930;2023-12-29T15:24:04;11.11;75.63
75357;HTU21D;63946;51.986;5.930;2023-12-29T15:26:33;11.12;75.63
75357;HTU21D;63946;51.986;5.930;2023-12-29T15:29:02;11.13;75.75
75357;HTU21D;63946;51.986;5.930;2023-12-29T15:31:32;11.13;75.70
75357;HTU21D;63946;51.986;5.930;2023-12-29T15:34:01;11.11;75.91
75357;HTU21D;63946;51.986;5.930;2023-12-29T15:36:29;11.10;76.04
75357;HTU21D;63946;51.986;5.930;2023-12-29T15:38:58;11.09;76.19
75357;HTU21D;63946;51.986;5.930;2023-12-29T15:41:27;11.10;76.24
75357;HTU21D;63946;51.986;5.930;2023-12-29T15:43:56;11.09;76.28
75357;HTU21D;63946;51.986;5.930;2023-12-29T15:46:24;11.08;76.31
75357;HTU21D;63946;51.986;5.930;2023-12-29T15:48:53;11.09;76.45
75357;HTU21D;63946;51.986;5.930;2023-12-29T15:51:23;11.11;76.44
75357;HTU21D;63946;51.986;5.930;2023-12-29T15:53:52;11.08;76.47
75357;HTU21D;63946;51.986;5.930;2023-12-29T15:56:21;11.07;76.57
75357;HTU21D;63946;51.986;5.930;2023-12-29T15:58:50;11.07;76.58
75357;HTU21D;63946;51.986;5.930;2023-12-29T16:01:23;11.03;76.60
75357;HTU21D;63946;51.986;5.930;2023-12-29T16:03:53;11.04;76.52
75357;HTU21D;63946;51.986;5.930;2023-12-29T16:06:25;11.04;76.40
75357;HTU21D;63946;51.986;5.930;2023-12-29T16:08:54;11.04;76.42
75357;HTU21D;63946;51.986;5.930;2023-12-29T16:11:24;11.05;76.41
75357;HTU21D;63946;51.986;5.930;2023-12-29T16:13:55;11.03;76.33
75357;HTU21D;63946;51.986;5.930;2023-12-29T16:16:25;11.04;76.39
75357;HTU21D;63946;51.986;5.930;2023-12-29T16:18:56;11.04;76.27
75357;HTU21D;63946;51.986;5.930;2023-12-29T16:21:35;11.04;76.20
75357;HTU21D;63946;51.986;5.930;2023-12-29T16:24:08;11.02;76.06
75357;HTU21D;63946;51.986;5.930;2023-12-29T16:26:38;11.01;76.05
75357;HTU21D;63946;51.986;5.930;2023-12-29T16:29:08;10.99;76.05
75357;HTU21D;63946;51.986;5.930;2023-12-29T16:31:37;10.99;75.95
75357;HTU21D;63946;51.986;5.930;2023-12-29T16:34:06;10.98;75.74
75357;HTU21D;63946;51.986;5.930;2023-12-29T16:36:34;10.99;75.67
75357;HTU21D;63946;51.986;5.930;2023-12-29T16:39:03;10.98;75.62
75357;HTU21D;63946;51.986;5.930;2023-12-29T16:41:32;10.94;75.59
75357;HTU21D;63946;51.986;5.930;2023-12-29T16:44:00;10.94;75.53
75357;HTU21D;63946;51.986;5.930;2023-12-29T16:46:30;10.93;75.50
75357;HTU21D;63946;51.986;5.930;2023-12-29T16:49:00;10.94;75.39
75357;HTU21D;63946;51.986;5.930;2023-12-29T16:51:29;10.90;75.33
75357;HTU21D;63946;51.986;5.930;2023-12-29T16:53:57;10.90;75.36
75357;HTU21D;63946;51.986;5.930;2023-12-29T16:56:27;10.89;75.45
75357;HTU21D;63946;51.986;5.930;2023-12-29T16:58:57;10.89;75.50
75357;HTU21D;63946;51.986;5.930;2023-12-29T17:01:29;10.90;75.57
75357;HTU21D;63946;51.986;5.930;2023-12-29T17:03:57;10.89;75.39
75357;HTU21D;63946;51.986;5.930;2023-12-29T17:06:26;10.87;75.83
75357;HTU21D;63946;51.986;5.930;2023-12-29T17:08:55;10.86;76.05
75357;HTU21D;63946;51.986;5.930;2023-12-29T17:11:23;10.85;76.22
75357;HTU21D;63946;51.986;5.930;2023-12-29T17:13:52;10.83;76.50
75357;HTU21D;63946;51.986;5.930;2023-12-29T17:16:21;10.81;76.75
75357;HTU21D;63946;51.986;5.930;2023-12-29T17:18:55;10.79;77.06
75357;HTU21D;63946;51.986;5.930;2023-12-29T17:21:23;10.73;77.02
75357;HTU21D;63946;51.986;5.930;2023-12-29T17:23:50;10.64;77.59
75357;HTU21D;63946;51.986;5.930;2023-12-29T17:26:18;10.54;77.72
75357;HTU21D;63946;51.986;5.930;2023-12-29T17:28:47;10.28;78.00
75357;HTU21D;63946;51.986;5.930;2023-12-29T17:31:17;10.05;78.75
75357;HTU21D;63946;51.986;5.930;2023-12-29T17:33:46;9.98;79.01
75357;HTU21D;63946;51.986;5.930;2023-12-29T17:36:14;9.97;78.78
75357;HTU21D;63946;51.986;5.930;2023-12-29T17:38:43;9.99;78.64
75357;HTU21D;63946;51.986;5.930;2023-12-29T17:41:12;10.00;78.17
75357;HTU21D;63946;51.986;5.930;2023-12-29T17:43:40;10.00;77.58
75357;HTU21D;63946;51.986;5.930;2023-12-29T17:46:11;9.92;76.77
75357;HTU21D;63946;51.986;5.930;2023-12-29T17:48:40;9.74;76.44
75357;HTU21D;63946;51.986;5.930;2023-12-29T17:51:08;9.56;76.10
75357;HTU21D;63946;51.986;5.930;2023-12-29T17:53:37;9.39;76.06
75357;HTU21D;63946;51.986;5.930;2023-12-29T17:56:10;9.31;76.05
75357;HTU21D;63946;51.986;5.930;2023-12-29T17:58:38;9.24;75.97
75357;HTU21D;63946;51.986;5.930;2023-12-29T18:01:07;9.15;75.85
75357;HTU21D;63946;51.986;5.930;2023-12-29T18:03:36;9.05;75.70
75357;HTU21D;63946;51.986;5.930;2023-12-29T18:06:05;8.90;75.91
75357;HTU21D;63946;51.986;5.930;2023-12-29T18:08:40;8.81;76.35
75357;HTU21D;63946;51.986;5.930;2023-12-29T18:11:09;8.79;76.40
75357;HTU21D;63946;51.986;5.930;2023-12-29T18:13:38;8.82;76.28
75357;HTU21D;63946;51.986;5.930;2023-12-29T18:16:08;8.86;76.27
75357;HTU21D;63946;51.986;5.930;2023-12-29T18:18:38;8.79;76.12
75357;HTU21D;63946;51.986;5.930;2023-12-29T18:21:07;8.76;76.21
75357;HTU21D;63946;51.986;5.930;2023-12-29T18:23:36;8.67;76.35
75357;HTU21D;63946;51.986;5.930;2023-12-29T18:26:05;8.66;76.36
75357;HTU21D;63946;51.986;5.930;2023-12-29T18:28:35;8.67;76.37
75357;HTU21D;63946;51.986;5.930;2023-12-29T18:31:06;8.67;76.18
75357;HTU21D;63946;51.986;5.930;2023-12-29T18:33:36;8.71;76.21
75357;HTU21D;63946;51.986;5.930;2023-12-29T18:36:06;8.73;76.11
75357;HTU21D;63946;51.986;5.930;2023-12-29T18:38:35;8.74;76.08
75357;HTU21D;63946;51.986;5.930;2023-12-29T18:41:08;8.73;76.12
75357;HTU21D;63946;51.986;5.930;2023-12-29T18:43:37;8.73;76.10
75357;HTU21D;63946;51.986;5.930;2023-12-29T18:46:07;8.73;76.07
75357;HTU21D;63946;51.986;5.930;2023-12-29T18:48:37;8.74;76.02
75357;HTU21D;63946;51.986;5.930;2023-12-29T18:51:06;8.72;76.06
75357;HTU21D;63946;51.986;5.930;2023-12-29T18:53:35;8.68;76.06
75357;HTU21D;63946;51.986;5.930;2023-12-29T18:56:08;8.66;76.14
75357;HTU21D;63946;51.986;5.930;2023-12-29T18:58:37;8.67;76.11
75357;HTU21D;63946;51.986;5.930;2023-12-29T19:01:06;8.65;76.07
75357;HTU21D;63946;51.986;5.930;2023-12-29T19:03:34;8.66;75.96
75357;HTU21D;63946;51.986;5.930;2023-12-29T19:06:04;8.65;75.94
75357;HTU21D;63946;51.986;5.930;2023-12-29T19:08:32;8.62;75.97
75357;HTU21D;63946;51.986;5.930;2023-12-29T19:11:01;8.59;76.03
75357;HTU21D;63946;51.986;5.930;2023-12-29T19:13:30;8.56;75.95
75357;HTU21D;63946;51.986;5.930;2023-12-29T19:15:59;8.55;76.08
75357;HTU21D;63946;51.986;5.930;2023-12-29T19:18:28;8.52;76.10
75357;HTU21D;63946;51.986;5.930;2023-12-29T19:20:57;8.53;75.99
75357;HTU21D;63946;51.986;5.930;2023-12-29T19:23:25;8.55;75.95
75357;HTU21D;63946;51.986;5.930;2023-12-29T19:25:54;8.53;75.83
75357;HTU21D;63946;51.986;5.930;2023-12-29T19:28:23;8.52;76.00
75357;HTU21D;63946;51.986;5.930;2023-12-29T19:30:53;8.52;75.88
75357;HTU21D;63946;51.986;5.930;2023-12-29T19:33:22;8.52;75.85
75357;HTU21D;63946;51.986;5.930;2023-12-29T19:35:53;8.48;75.99
75357;HTU21D;63946;51.986;5.930;2023-12-29T19:38:23;8.46;76.04
75357;HTU21D;63946;51.986;5.930;2023-12-29T19:40:52;8.47;76.04
75357;HTU21D;63946;51.986;5.930;2023-12-29T19:43:21;8.45;76.13
75357;HTU21D;63946;51.986;5.930;2023-12-29T19:45:50;8.44;76.06
75357;HTU21D;63946;51.986;5.930;2023-12-29T19:48:18;8.45;76.07
75357;HTU21D;63946;51.986;5.930;2023-12-29T19:50:47;8.45;76.08
75357;HTU21D;63946;51.986;5.930;2023-12-29T19:53:18;8.45;76.03
75357;HTU21D;63946;51.986;5.930;2023-12-29T19:55:49;8.46;76.05
75357;HTU21D;63946;51.986;5.930;2023-12-29T19:58:19;8.47;76.09
75357;HTU21D;63946;51.986;5.930;2023-12-29T20:00:52;8.45;76.20
75357;HTU21D;63946;51.986;5.930;2023-12-29T20:03:21;8.48;76.13
75357;HTU21D;63946;51.986;5.930;2023-12-29T20:05:50;8.50;76.13
75357;HTU21D;63946;51.986;5.930;2023-12-29T20:08:19;8.53;76.12
75357;HTU21D;63946;51.986;5.930;2023-12-29T20:10:47;8.57;76.18
75357;HTU21D;63946;51.986;5.930;2023-12-29T20:13:16;8.59;76.09
75357;HTU21D;63946;51.986;5.930;2023-12-29T20:15:47;8.63;76.02
75357;HTU21D;63946;51.986;5.930;2023-12-29T20:18:16;8.65;75.86
75357;HTU21D;63946;51.986;5.930;2023-12-29T20:20:44;8.71;75.84
75357;HTU21D;63946;51.986;5.930;2023-12-29T20:23:16;8.78;75.84
75357;HTU21D;63946;51.986;5.930;2023-12-29T20:25:45;8.81;75.74
75357;HTU21D;63946;51.986;5.930;2023-12-29T20:28:15;8.88;75.71
75357;HTU21D;63946;51.986;5.930;2023-12-29T20:30:46;8.93;75.60
75357;HTU21D;63946;51.986;5.930;2023-12-29T20:33:15;8.98;75.44
75357;HTU21D;63946;51.986;5.930;2023-12-29T20:35:44;9.04;75.54
75357;HTU21D;63946;51.986;5.930;2023-12-29T20:38:13;9.09;75.59
75357;HTU21D;63946;51.986;5.930;2023-12-29T20:40:41;9.10;75.74
75357;HTU21D;63946;51.986;5.930;2023-12-29T20:43:10;9.08;75.60
75357;HTU21D;63946;51.986;5.930;2023-12-29T20:45:39;9.06;75.89
75357;HTU21D;63946;51.986;5.930;2023-12-29T20:48:10;9.05;76.01
75357;HTU21D;63946;51.986;5.930;2023-12-29T20:50:39;9.03;76.11
75357;HTU21D;63946;51.986;5.930;2023-12-29T20:53:11;9.03;76.18
75357;HTU21D;63946;51.986;5.930;2023-12-29T20:55:40;9.02;76.21
75357;HTU21D;63946;51.986;5.930;2023-12-29T20:58:09;9.00;76.31
75357;HTU21D;63946;51.986;5.930;2023-12-29T21:00:38;8.97;76.47
75357;HTU21D;63946;51.986;5.930;2023-12-29T21:03:07;8.98;76.46
75357;HTU21D;63946;51.986;5.930;2023-12-29T21:05:36;9.00;76.50
75357;HTU21D;63946;51.986;5.930;2023-12-29T21:08:06;9.00;76.60
75357;HTU21D;63946;51.986;5.930;2023-12-29T21:10:35;8.97;76.63
75357;HTU21D;63946;51.986;5.930;2023-12-29T21:13:03;8.96;76.48
75357;HTU21D;63946;51.986;5.930;2023-12-29T21:15:32;8.96;76.61
75357;HTU21D;63946;51.986;5.930;2023-12-29T21:18:01;8.94;76.66
75357;HTU21D;63946;51.986;5.930;2023-12-29T21:20:29;8.96;76.59
75357;HTU21D;63946;51.986;5.930;2023-12-29T21:22:58;8.97;76.67
75357;HTU21D;63946;51.986;5.930;2023-12-29T21:25:27;9.00;76.70
75357;HTU21D;63946;51.986;5.930;2023-12-29T21:28:00;8.97;76.64
75357;HTU21D;63946;51.986;5.930;2023-12-29T21:30:30;8.70;76.62
75357;HTU21D;63946;51.986;5.930;2023-12-29T21:32:58;8.38;77.09
75357;HTU21D;63946;51.986;5.930;2023-12-29T21:35:27;8.24;77.16
75357;HTU21D;63946;51.986;5.930;2023-12-29T21:37:56;8.13;76.92
75357;HTU21D;63946;51.986;5.930;2023-12-29T21:40:25;8.07;76.49
75357;HTU21D;63946;51.986;5.930;2023-12-29T21:42:53;8.05;76.20
75357;HTU21D;63946;51.986;5.930;2023-12-29T21:45:22;8.02;75.63
75357;HTU21D;63946;51.986;5.930;2023-12-29T21:47:52;7.99;75.78
75357;HTU21D;63946;51.986;5.930;2023-12-29T21:50:20;7.91;75.81
75357;HTU21D;63946;51.986;5.930;2023-12-29T21:52:49;7.86;75.73
75357;HTU21D;63946;51.986;5.930;2023-12-29T21:55:18;7.74;76.12
75357;HTU21D;63946;51.986;5.930;2023-12-29T21:57:48;7.69;76.21
75357;HTU21D;63946;51.986;5.930;2023-12-29T22:00:17;7.69;76.14
75357;HTU21D;63946;51.986;5.930;2023-12-29T22:02:45;7.63;76.10
75357;HTU21D;63946;51.986;5.930;2023-12-29T22:05:14;7.59;76.18
75357;HTU21D;63946;51.986;5.930;2023-12-29T22:07:43;7.52;76.45
75357;HTU21D;63946;51.986;5.930;2023-12-29T22:10:12;7.44;76.51
75357;HTU21D;63946;51.986;5.930;2023-12-29T22:12:41;7.39;76.59
75357;HTU21D;63946;51.986;5.930;2023-12-29T22:15:10;7.56;76.76
75357;HTU21D;63946;51.986;5.930;2023-12-29T22:17:39;7.40;76.76
75357;HTU21D;63946;51.986;5.930;2023-12-29T22:20:10;7.41;76.79
75357;HTU21D;63946;51.986;5.930;2023-12-29T22:22:39;7.40;76.86
75357;HTU21D;63946;51.986;5.930;2023-12-29T22:25:08;7.46;76.78
75357;HTU21D;63946;51.986;5.930;2023-12-29T22:27:37;7.50;76.77
75357;HTU21D;63946;51.986;5.930;2023-12-29T22:30:06;7.56;76.71
